sensor_id;sensor_type;location;lat;lon;timestamp;temperature;humidity
14687;DHT22;7431;49.440;11.084;2023-11-21T00:01:44;8.00;99.90
14687;DHT22;7431;49.440;11.084;2023-11-21T00:04:10;8.00;99.90
14687;DHT22;7431;49.440;11.084;2023-11-21T00:06:35;8.00;99.90
14687;DHT22;7431;49.440;11.084;2023-11-21T00:09:01;8.00;99.90
14687;DHT22;7431;49.440;11.084;2023-11-21T00:11:26;8.00;99.90
14687;DHT22;7431;49.440;11.084;2023-11-21T00:13:52;8.00;99.90
14687;DHT22;7431;49.440;11.084;2023-11-21T00:16:17;8.00;99.90
14687;DHT22;7431;49.440;11.084;2023-11-21T00:18:43;8.00;99.90
14687;DHT22;7431;49.440;11.084;2023-11-21T00:21:11;8.00;99.90
14687;DHT22;7431;49.440;11.084;2023-11-21T00:23:38;8.00;99.90
14687;DHT22;7431;49.440;11.084;2023-11-21T00:26:03;8.00;99.90
14687;DHT22;7431;49.440;11.084;2023-11-21T00:28:29;7.90;99.90
14687;DHT22;7431;49.440;11.084;2023-11-21T00:30:55;7.90;99.90
14687;DHT22;7431;49.440;11.084;2023-11-21T00:33:21;7.90;99.90
14687;DHT22;7431;49.440;11.084;2023-11-21T00:35:46;7.80;99.90
14687;DHT22;7431;49.440;11.084;2023-11-21T00:38:12;7.80;99.90
14687;DHT22;7431;49.440;11.084;2023-11-21T00:40:37;7.80;99.90
14687;DHT22;7431;49.440;11.084;2023-11-21T00:43:03;7.70;99.90
14687;DHT22;7431;49.440;11.084;2023-11-21T00:45:29;7.70;99.90
14687;DHT22;7431;49.440;11.084;2023-11-21T00:47:54;7.70;99.90
14687;DHT22;7431;49.440;11.084;2023-11-21T00:50:21;7.60;99.90
14687;DHT22;7431;49.440;11.084;2023-11-21T00:52:47;7.60;99.90
14687;DHT22;7431;49.440;11.084;2023-11-21T00:55:12;7.60;99.90
14687;DHT22;7431;49.440;11.084;2023-11-21T00:57:38;7.60;99.90
14687;DHT22;7431;49.440;11.084;2023-11-21T01:00:04;7.50;99.90
14687;DHT22;7431;49.440;11.084;2023-11-21T01:02:38;7.50;99.90
14687;DHT22;7431;49.440;11.084;2023-11-21T01:05:04;7.60;99.90
14687;DHT22;7431;49.440;11.084;2023-11-21T01:07:33;7.60;99.90
14687;DHT22;7431;49.440;11.084;2023-11-21T01:09:58;7.60;99.90
14687;DHT22;7431;49.440;11.084;2023-11-21T01:12:24;7.60;99.90
14687;DHT22;7431;49.440;11.084;2023-11-21T01:14:50;7.60;99.90
14687;DHT22;7431;49.440;11.084;2023-11-21T01:17:16;7.70;99.90
14687;DHT22;7431;49.440;11.084;2023-11-21T01:19:42;7.70;99.90
14687;DHT22;7431;49.440;11.084;2023-11-21T01:22:07;7.80;99.90
14687;DHT22;7431;49.440;11.084;2023-11-21T01:24:33;7.80;99.90
14687;DHT22;7431;49.440;11.084;2023-11-21T01:26:59;7.90;99.90
14687;DHT22;7431;49.440;11.084;2023-11-21T01:29:25;7.90;99.90
14687;DHT22;7431;49.440;11.084;2023-11-21T01:31:50;7.90;99.90
14687;DHT22;7431;49.440;11.084;2023-11-21T01:34:17;8.00;99.90
14687;DHT22;7431;49.440;11.084;2023-11-21T01:36:42;7.90;99.90
14687;DHT22;7431;49.440;11.084;2023-11-21T01:39:08;7.90;99.90
14687;DHT22;7431;49.440;11.084;2023-11-21T01:41:36;7.90;99.90
14687;DHT22;7431;49.440;11.084;2023-11-21T01:44:02;8.00;99.90
14687;DHT22;7431;49.440;11.084;2023-11-21T01:46:28;8.00;99.90
14687;DHT22;7431;49.440;11.084;2023-11-21T01:48:54;8.00;99.90
14687;DHT22;7431;49.440;11.084;2023-11-21T01:51:20;8.00;99.90
14687;DHT22;7431;49.440;11.084;2023-11-21T01:53:46;7.90;99.90
14687;DHT22;7431;49.440;11.084;2023-11-21T01:56:12;7.90;99.90
14687;DHT22;7431;49.440;11.084;2023-11-21T01:58:38;7.90;99.90
14687;DHT22;7431;49.440;11.084;2023-11-21T02:01:04;7.90;99.90
14687;DHT22;7431;49.440;11.084;2023-11-21T02:03:30;7.90;99.90
14687;DHT22;7431;49.440;11.084;2023-11-21T02:05:56;7.90;99.90
14687;DHT22;7431;49.440;11.084;2023-11-21T02:08:22;7.90;99.90
14687;DHT22;7431;49.440;11.084;2023-11-21T02:10:47;7.80;99.90
14687;DHT22;7431;49.440;11.084;2023-11-21T02:13:13;7.80;99.90
14687;DHT22;7431;49.440;11.084;2023-11-21T02:15:39;7.90;99.90
14687;DHT22;7431;49.440;11.084;2023-11-21T02:18:04;7.80;99.90
14687;DHT22;7431;49.440;11.084;2023-11-21T02:20:31;7.80;99.90
14687;DHT22;7431;49.440;11.084;2023-11-21T02:23:00;7.80;99.90
14687;DHT22;7431;49.440;11.084;2023-11-21T02:25:33;7.80;99.90
14687;DHT22;7431;49.440;11.084;2023-11-21T02:28:02;7.80;99.90
14687;DHT22;7431;49.440;11.084;2023-11-21T02:30:28;7.70;99.90
14687;DHT22;7431;49.440;11.084;2023-11-21T02:32:55;7.70;99.90
14687;DHT22;7431;49.440;11.084;2023-11-21T02:35:24;7.70;99.90
14687;DHT22;7431;49.440;11.084;2023-11-21T02:37:51;7.60;99.90
14687;DHT22;7431;49.440;11.084;2023-11-21T02:40:17;7.60;99.90
14687;DHT22;7431;49.440;11.084;2023-11-21T02:42:44;7.60;99.90
14687;DHT22;7431;49.440;11.084;2023-11-21T02:45:09;7.70;99.90
14687;DHT22;7431;49.440;11.084;2023-11-21T02:47:38;7.60;99.90
14687;DHT22;7431;49.440;11.084;2023-11-21T02:50:04;7.70;99.90
14687;DHT22;7431;49.440;11.084;2023-11-21T02:52:31;7.60;99.90
14687;DHT22;7431;49.440;11.084;2023-11-21T02:54:58;7.60;99.90
14687;DHT22;7431;49.440;11.084;2023-11-21T02:57:24;8.40;99.90
14687;DHT22;7431;49.440;11.084;2023-11-21T02:59:49;7.60;99.90
14687;DHT22;7431;49.440;11.084;2023-11-21T03:02:15;8.10;99.90
14687;DHT22;7431;49.440;11.084;2023-11-21T03:04:41;7.50;99.90
14687;DHT22;7431;49.440;11.084;2023-11-21T03:07:08;7.60;99.90
14687;DHT22;7431;49.440;11.084;2023-11-21T03:09:34;7.60;99.90
14687;DHT22;7431;49.440;11.084;2023-11-21T03:12:00;7.60;99.90
14687;DHT22;7431;49.440;11.084;2023-11-21T03:14:26;7.60;99.90
14687;DHT22;7431;49.440;11.084;2023-11-21T03:16:51;7.60;99.90
14687;DHT22;7431;49.440;11.084;2023-11-21T03:19:17;7.50;99.90
14687;DHT22;7431;49.440;11.084;2023-11-21T03:21:42;7.50;99.90
14687;DHT22;7431;49.440;11.084;2023-11-21T03:24:08;7.90;99.90
14687;DHT22;7431;49.440;11.084;2023-11-21T03:26:34;7.50;99.90
14687;DHT22;7431;49.440;11.084;2023-11-21T03:28:59;7.50;99.90
14687;DHT22;7431;49.440;11.084;2023-11-21T03:31:25;7.60;99.90
14687;DHT22;7431;49.440;11.084;2023-11-21T03:33:52;7.60;99.90
14687;DHT22;7431;49.440;11.084;2023-11-21T03:36:19;7.60;99.90
14687;DHT22;7431;49.440;11.084;2023-11-21T03:38:45;7.50;99.90
14687;DHT22;7431;49.440;11.084;2023-11-21T03:41:10;7.50;99.90
14687;DHT22;7431;49.440;11.084;2023-11-21T03:43:39;7.50;99.90
14687;DHT22;7431;49.440;11.084;2023-11-21T03:46:05;7.60;99.90
14687;DHT22;7431;49.440;11.084;2023-11-21T03:48:30;7.60;99.90
14687;DHT22;7431;49.440;11.084;2023-11-21T03:50:56;7.90;99.90
14687;DHT22;7431;49.440;11.084;2023-11-21T03:53:21;7.60;99.90
14687;DHT22;7431;49.440;11.084;2023-11-21T03:55:47;7.60;99.90
14687;DHT22;7431;49.440;11.084;2023-11-21T03:58:13;7.60;99.90
14687;DHT22;7431;49.440;11.084;2023-11-21T04:00:38;7.60;99.90
14687;DHT22;7431;49.440;11.084;2023-11-21T04:03:04;7.60;99.90
14687;DHT22;7431;49.440;11.084;2023-11-21T04:05:30;7.60;99.90
14687;DHT22;7431;49.440;11.084;2023-11-21T04:07:56;7.50;99.90
14687;DHT22;7431;49.440;11.084;2023-11-21T04:10:22;7.50;99.90
14687;DHT22;7431;49.440;11.084;2023-11-21T04:12:47;7.60;99.90
14687;DHT22;7431;49.440;11.084;2023-11-21T04:15:14;7.50;99.90
14687;DHT22;7431;49.440;11.084;2023-11-21T04:17:40;7.60;99.90
14687;DHT22;7431;49.440;11.084;2023-11-21T04:20:07;7.60;99.90
14687;DHT22;7431;49.440;11.084;2023-11-21T04:22:37;7.60;99.90
14687;DHT22;7431;49.440;11.084;2023-11-21T04:25:07;7.60;99.90
14687;DHT22;7431;49.440;11.084;2023-11-21T04:27:33;7.70;99.90
14687;DHT22;7431;49.440;11.084;2023-11-21T04:29:59;7.70;99.90
14687;DHT22;7431;49.440;11.084;2023-11-21T04:32:25;7.70;99.90
14687;DHT22;7431;49.440;11.084;2023-11-21T04:34:51;7.80;99.90
14687;DHT22;7431;49.440;11.084;2023-11-21T04:37:16;7.80;99.90
14687;DHT22;7431;49.440;11.084;2023-11-21T04:39:42;7.80;99.90
14687;DHT22;7431;49.440;11.084;2023-11-21T04:42:07;7.80;99.90
14687;DHT22;7431;49.440;11.084;2023-11-21T04:44:33;7.80;99.90
14687;DHT22;7431;49.440;11.084;2023-11-21T04:46:58;7.80;99.90
14687;DHT22;7431;49.440;11.084;2023-11-21T04:49:24;7.80;99.90
14687;DHT22;7431;49.440;11.084;2023-11-21T04:51:49;7.80;99.90
14687;DHT22;7431;49.440;11.084;2023-11-21T04:54:15;7.80;99.90
14687;DHT22;7431;49.440;11.084;2023-11-21T04:56:40;7.80;99.90
14687;DHT22;7431;49.440;11.084;2023-11-21T04:59:07;7.70;99.90
14687;DHT22;7431;49.440;11.084;2023-11-21T05:01:32;7.70;99.90
14687;DHT22;7431;49.440;11.084;2023-11-21T05:03:58;7.70;99.90
14687;DHT22;7431;49.440;11.084;2023-11-21T05:06:24;7.70;99.90
14687;DHT22;7431;49.440;11.084;2023-11-21T05:08:52;7.70;99.90
14687;DHT22;7431;49.440;11.084;2023-11-21T05:11:28;8.20;99.90
14687;DHT22;7431;49.440;11.084;2023-11-21T05:13:54;7.70;99.90
14687;DHT22;7431;49.440;11.084;2023-11-21T05:16:21;7.70;99.90
14687;DHT22;7431;49.440;11.084;2023-11-21T05:18:47;8.20;99.90
14687;DHT22;7431;49.440;11.084;2023-11-21T05:21:13;7.60;99.90
14687;DHT22;7431;49.440;11.084;2023-11-21T05:23:39;7.50;99.90
14687;DHT22;7431;49.440;11.084;2023-11-21T05:26:05;7.50;99.90
14687;DHT22;7431;49.440;11.084;2023-11-21T05:28:30;7.50;99.90
14687;DHT22;7431;49.440;11.084;2023-11-21T05:30:56;7.50;99.90
14687;DHT22;7431;49.440;11.084;2023-11-21T05:33:22;7.50;99.90
14687;DHT22;7431;49.440;11.084;2023-11-21T05:35:47;7.50;99.90
14687;DHT22;7431;49.440;11.084;2023-11-21T05:38:15;7.40;99.90
14687;DHT22;7431;49.440;11.084;2023-11-21T05:40:41;7.50;99.90
14687;DHT22;7431;49.440;11.084;2023-11-21T05:43:07;7.40;99.90
14687;DHT22;7431;49.440;11.084;2023-11-21T05:45:32;7.40;99.90
14687;DHT22;7431;49.440;11.084;2023-11-21T05:47:58;7.40;99.90
14687;DHT22;7431;49.440;11.084;2023-11-21T05:50:27;7.50;99.90
14687;DHT22;7431;49.440;11.084;2023-11-21T05:52:53;7.40;99.90
14687;DHT22;7431;49.440;11.084;2023-11-21T05:55:19;7.60;99.90
14687;DHT22;7431;49.440;11.084;2023-11-21T05:57:46;7.50;99.90
14687;DHT22;7431;49.440;11.084;2023-11-21T06:00:13;7.50;99.90
14687;DHT22;7431;49.440;11.084;2023-11-21T06:02:46;7.50;99.90
14687;DHT22;7431;49.440;11.084;2023-11-21T06:05:12;7.50;99.90
14687;DHT22;7431;49.440;11.084;2023-11-21T06:07:38;7.50;99.90
14687;DHT22;7431;49.440;11.084;2023-11-21T06:10:06;7.50;99.90
14687;DHT22;7431;49.440;11.084;2023-11-21T06:12:34;7.50;99.90
14687;DHT22;7431;49.440;11.084;2023-11-21T06:15:04;7.50;99.90
14687;DHT22;7431;49.440;11.084;2023-11-21T06:17:34;7.50;99.90
14687;DHT22;7431;49.440;11.084;2023-11-21T06:20:07;7.50;99.90
14687;DHT22;7431;49.440;11.084;2023-11-21T06:22:41;7.50;99.90
14687;DHT22;7431;49.440;11.084;2023-11-21T06:25:08;7.50;99.90
14687;DHT22;7431;49.440;11.084;2023-11-21T06:27:37;7.60;99.90
14687;DHT22;7431;49.440;11.084;2023-11-21T06:30:04;7.50;99.90
14687;DHT22;7431;49.440;11.084;2023-11-21T06:32:30;7.50;99.90
14687;DHT22;7431;49.440;11.084;2023-11-21T06:34:56;7.50;99.90
14687;DHT22;7431;49.440;11.084;2023-11-21T06:37:25;7.50;99.90
14687;DHT22;7431;49.440;11.084;2023-11-21T06:39:50;7.50;99.90
14687;DHT22;7431;49.440;11.084;2023-11-21T06:42:18;8.10;99.90
14687;DHT22;7431;49.440;11.084;2023-11-21T06:44:45;7.50;99.90
14687;DHT22;7431;49.440;11.084;2023-11-21T06:47:11;7.50;99.90
14687;DHT22;7431;49.440;11.084;2023-11-21T06:49:36;7.50;99.90
14687;DHT22;7431;49.440;11.084;2023-11-21T06:52:04;7.50;99.90
14687;DHT22;7431;49.440;11.084;2023-11-21T06:54:31;7.50;99.90
14687;DHT22;7431;49.440;11.084;2023-11-21T06:56:56;7.50;99.90
14687;DHT22;7431;49.440;11.084;2023-11-21T06:59:22;7.50;99.90
14687;DHT22;7431;49.440;11.084;2023-11-21T07:01:49;7.60;99.90
14687;DHT22;7431;49.440;11.084;2023-11-21T07:04:15;7.60;99.90
14687;DHT22;7431;49.440;11.084;2023-11-21T07:06:40;7.60;99.90
14687;DHT22;7431;49.440;11.084;2023-11-21T07:09:06;7.70;99.90
14687;DHT22;7431;49.440;11.084;2023-11-21T07:11:34;7.70;99.90
14687;DHT22;7431;49.440;11.084;2023-11-21T07:14:00;7.70;99.90
14687;DHT22;7431;49.440;11.084;2023-11-21T07:16:27;7.80;99.90
14687;DHT22;7431;49.440;11.084;2023-11-21T07:18:55;7.80;99.90
14687;DHT22;7431;49.440;11.084;2023-11-21T07:21:21;7.80;99.90
14687;DHT22;7431;49.440;11.084;2023-11-21T07:23:47;7.80;99.90
14687;DHT22;7431;49.440;11.084;2023-11-21T07:26:12;7.80;99.90
14687;DHT22;7431;49.440;11.084;2023-11-21T07:28:38;7.90;99.90
14687;DHT22;7431;49.440;11.084;2023-11-21T07:31:03;7.90;99.90
14687;DHT22;7431;49.440;11.084;2023-11-21T07:33:29;7.90;99.90
14687;DHT22;7431;49.440;11.084;2023-11-21T07:35:55;8.00;99.90
14687;DHT22;7431;49.440;11.084;2023-11-21T07:38:20;8.30;99.90
14687;DHT22;7431;49.440;11.084;2023-11-21T07:40:46;8.20;99.90
14687;DHT22;7431;49.440;11.084;2023-11-21T07:43:12;8.50;99.90
14687;DHT22;7431;49.440;11.084;2023-11-21T07:45:37;8.30;99.90
14687;DHT22;7431;49.440;11.084;2023-11-21T07:48:03;8.40;99.90
14687;DHT22;7431;49.440;11.084;2023-11-21T07:50:30;8.50;99.90
14687;DHT22;7431;49.440;11.084;2023-11-21T07:52:57;8.60;99.90
14687;DHT22;7431;49.440;11.084;2023-11-21T07:55:23;8.60;99.90
14687;DHT22;7431;49.440;11.084;2023-11-21T07:57:50;8.70;99.90
14687;DHT22;7431;49.440;11.084;2023-11-21T08:00:16;8.70;99.90
14687;DHT22;7431;49.440;11.084;2023-11-21T08:02:41;8.80;99.90
14687;DHT22;7431;49.440;11.084;2023-11-21T08:05:08;8.90;99.90
14687;DHT22;7431;49.440;11.084;2023-11-21T08:07:34;9.00;99.90
14687;DHT22;7431;49.440;11.084;2023-11-21T08:10:00;9.50;99.90
14687;DHT22;7431;49.440;11.084;2023-11-21T08:12:25;9.30;99.90
14687;DHT22;7431;49.440;11.084;2023-11-21T08:14:56;9.50;67.90
14687;DHT22;7431;49.440;11.084;2023-11-21T08:17:21;9.70;1.00
14687;DHT22;7431;49.440;11.084;2023-11-21T08:19:48;9.90;1.00
14687;DHT22;7431;49.440;11.084;2023-11-21T08:22:15;10.00;1.00
14687;DHT22;7431;49.440;11.084;2023-11-21T08:24:43;10.10;1.00
14687;DHT22;7431;49.440;11.084;2023-11-21T08:27:09;10.20;99.90
14687;DHT22;7431;49.440;11.084;2023-11-21T08:29:34;10.60;99.90
14687;DHT22;7431;49.440;11.084;2023-11-21T08:32:02;10.20;1.00
14687;DHT22;7431;49.440;11.084;2023-11-21T08:34:27;10.20;1.00
14687;DHT22;7431;49.440;11.084;2023-11-21T08:36:54;10.20;1.00
14687;DHT22;7431;49.440;11.084;2023-11-21T08:39:21;10.20;1.00
14687;DHT22;7431;49.440;11.084;2023-11-21T08:41:50;10.10;1.00
14687;DHT22;7431;49.440;11.084;2023-11-21T08:44:16;10.10;1.00
14687;DHT22;7431;49.440;11.084;2023-11-21T08:46:44;10.10;1.00
14687;DHT22;7431;49.440;11.084;2023-11-21T08:49:11;10.10;1.00
14687;DHT22;7431;49.440;11.084;2023-11-21T08:51:37;10.10;99.90
14687;DHT22;7431;49.440;11.084;2023-11-21T08:54:03;10.10;99.90
14687;DHT22;7431;49.440;11.084;2023-11-21T08:56:33;10.00;1.00
14687;DHT22;7431;49.440;11.084;2023-11-21T08:58:58;10.10;1.00
14687;DHT22;7431;49.440;11.084;2023-11-21T09:01:27;10.00;1.00
14687;DHT22;7431;49.440;11.084;2023-11-21T09:03:53;10.10;1.00
14687;DHT22;7431;49.440;11.084;2023-11-21T09:06:18;10.10;1.00
14687;DHT22;7431;49.440;11.084;2023-11-21T09:08:44;10.10;99.90
14687;DHT22;7431;49.440;11.084;2023-11-21T09:11:10;10.30;99.90
14687;DHT22;7431;49.440;11.084;2023-11-21T09:13:35;10.30;1.00
14687;DHT22;7431;49.440;11.084;2023-11-21T09:16:02;10.30;1.00
14687;DHT22;7431;49.440;11.084;2023-11-21T09:18:27;10.30;99.90
14687;DHT22;7431;49.440;11.084;2023-11-21T09:20:53;10.40;1.00
14687;DHT22;7431;49.440;11.084;2023-11-21T09:23:18;10.40;1.00
14687;DHT22;7431;49.440;11.084;2023-11-21T09:25:44;10.50;1.00
14687;DHT22;7431;49.440;11.084;2023-11-21T09:28:12;10.60;1.00
14687;DHT22;7431;49.440;11.084;2023-11-21T09:30:38;10.60;1.00
14687;DHT22;7431;49.440;11.084;2023-11-21T09:33:04;10.60;99.90
14687;DHT22;7431;49.440;11.084;2023-11-21T09:35:32;10.70;1.00
14687;DHT22;7431;49.440;11.084;2023-11-21T09:37:58;10.70;1.00
14687;DHT22;7431;49.440;11.084;2023-11-21T09:40:24;10.60;1.00
14687;DHT22;7431;49.440;11.084;2023-11-21T09:42:56;10.50;99.90
14687;DHT22;7431;49.440;11.084;2023-11-21T09:45:29;10.50;99.90
14687;DHT22;7431;49.440;11.084;2023-11-21T09:47:57;10.60;6.80
14687;DHT22;7431;49.440;11.084;2023-11-21T09:50:23;11.10;1.00
14687;DHT22;7431;49.440;11.084;2023-11-21T09:53:12;10.40;1.00
14687;DHT22;7431;49.440;11.084;2023-11-21T09:55:43;10.30;1.00
14687;DHT22;7431;49.440;11.084;2023-11-21T09:58:10;10.20;1.00
14687;DHT22;7431;49.440;11.084;2023-11-21T10:00:40;10.10;99.90
14687;DHT22;7431;49.440;11.084;2023-11-21T10:03:06;10.20;1.00
14687;DHT22;7431;49.440;11.084;2023-11-21T10:05:32;10.10;1.00
14687;DHT22;7431;49.440;11.084;2023-11-21T10:07:59;10.20;1.00
14687;DHT22;7431;49.440;11.084;2023-11-21T10:10:25;10.50;1.00
14687;DHT22;7431;49.440;11.084;2023-11-21T10:12:56;10.50;99.90
14687;DHT22;7431;49.440;11.084;2023-11-21T10:15:23;10.60;1.00
14687;DHT22;7431;49.440;11.084;2023-11-21T10:17:50;10.20;1.00
14687;DHT22;7431;49.440;11.084;2023-11-21T10:20:21;9.90;1.00
14687;DHT22;7431;49.440;11.084;2023-11-21T10:22:49;9.80;1.00
14687;DHT22;7431;49.440;11.084;2023-11-21T10:25:15;10.00;1.00
14687;DHT22;7431;49.440;11.084;2023-11-21T10:27:42;10.10;21.00
14687;DHT22;7431;49.440;11.084;2023-11-21T10:30:09;10.10;99.90
14687;DHT22;7431;49.440;11.084;2023-11-21T10:32:38;10.20;1.00
14687;DHT22;7431;49.440;11.084;2023-11-21T10:35:03;10.30;1.00
14687;DHT22;7431;49.440;11.084;2023-11-21T10:37:36;10.50;1.00
14687;DHT22;7431;49.440;11.084;2023-11-21T10:40:06;10.80;1.00
14687;DHT22;7431;49.440;11.084;2023-11-21T10:42:32;11.10;1.00
14687;DHT22;7431;49.440;11.084;2023-11-21T10:44:58;11.40;99.90
14687;DHT22;7431;49.440;11.084;2023-11-21T10:47:23;11.20;86.90
14687;DHT22;7431;49.440;11.084;2023-11-21T10:49:49;11.80;1.00
14687;DHT22;7431;49.440;11.084;2023-11-21T10:52:15;11.20;19.30
14687;DHT22;7431;49.440;11.084;2023-11-21T10:54:43;11.50;1.00
14687;DHT22;7431;49.440;11.084;2023-11-21T10:57:10;11.60;87.20
14687;DHT22;7431;49.440;11.084;2023-11-21T10:59:36;11.60;92.90
14687;DHT22;7431;49.440;11.084;2023-11-21T11:02:13;11.00;99.90
14687;DHT22;7431;49.440;11.084;2023-11-21T11:04:41;10.50;99.90
14687;DHT22;7431;49.440;11.084;2023-11-21T11:07:08;10.50;1.00
14687;DHT22;7431;49.440;11.084;2023-11-21T11:09:38;10.50;1.00
14687;DHT22;7431;49.440;11.084;2023-11-21T11:12:04;10.30;1.00
14687;DHT22;7431;49.440;11.084;2023-11-21T11:14:32;10.30;1.00
14687;DHT22;7431;49.440;11.084;2023-11-21T11:16:58;10.30;1.00
14687;DHT22;7431;49.440;11.084;2023-11-21T11:19:25;10.30;99.90
14687;DHT22;7431;49.440;11.084;2023-11-21T11:22:03;10.20;1.00
14687;DHT22;7431;49.440;11.084;2023-11-21T11:25:44;10.30;1.00
14687;DHT22;7431;49.440;11.084;2023-11-21T11:28:05;10.20;99.90
14687;DHT22;7431;49.440;11.084;2023-11-21T11:33:43;10.40;99.90
14687;DHT22;7431;49.440;11.084;2023-11-21T11:36:18;10.40;37.90
14687;DHT22;7431;49.440;11.084;2023-11-21T11:38:47;10.30;1.00
14687;DHT22;7431;49.440;11.084;2023-11-21T11:41:25;10.30;1.00
14687;DHT22;7431;49.440;11.084;2023-11-21T11:43:51;10.10;1.00
14687;DHT22;7431;49.440;11.084;2023-11-21T11:46:16;10.00;99.90
14687;DHT22;7431;49.440;11.084;2023-11-21T11:48:42;10.00;1.00
14687;DHT22;7431;49.440;11.084;2023-11-21T11:51:11;9.80;1.00
14687;DHT22;7431;49.440;11.084;2023-11-21T11:53:40;9.70;99.90
14687;DHT22;7431;49.440;11.084;2023-11-21T11:56:22;9.70;1.00
14687;DHT22;7431;49.440;11.084;2023-11-21T11:58:49;9.80;1.00
14687;DHT22;7431;49.440;11.084;2023-11-21T12:01:19;9.90;1.00
14687;DHT22;7431;49.440;11.084;2023-11-21T12:06:41;9.90;99.90
14687;DHT22;7431;49.440;11.084;2023-11-21T12:09:07;10.00;99.90
14687;DHT22;7431;49.440;11.084;2023-11-21T12:11:41;10.80;99.90
14687;DHT22;7431;49.440;11.084;2023-11-21T12:14:09;10.30;1.00
14687;DHT22;7431;49.440;11.084;2023-11-21T12:16:35;10.40;99.90
14687;DHT22;7431;49.440;11.084;2023-11-21T12:19:00;10.50;1.00
14687;DHT22;7431;49.440;11.084;2023-11-21T12:21:27;10.60;99.90
14687;DHT22;7431;49.440;11.084;2023-11-21T12:23:53;10.60;47.20
14687;DHT22;7431;49.440;11.084;2023-11-21T12:26:19;10.60;1.00
14687;DHT22;7431;49.440;11.084;2023-11-21T12:28:52;11.00;1.00
14687;DHT22;7431;49.440;11.084;2023-11-21T12:31:21;10.90;1.00
14687;DHT22;7431;49.440;11.084;2023-11-21T12:33:47;11.00;99.90
14687;DHT22;7431;49.440;11.084;2023-11-21T12:36:12;11.00;1.00
14687;DHT22;7431;49.440;11.084;2023-11-21T12:38:38;11.00;1.00
14687;DHT22;7431;49.440;11.084;2023-11-21T12:41:04;11.00;1.00
14687;DHT22;7431;49.440;11.084;2023-11-21T12:43:32;11.00;1.00
14687;DHT22;7431;49.440;11.084;2023-11-21T12:46:08;11.30;1.00
14687;DHT22;7431;49.440;11.084;2023-11-21T12:48:39;11.00;1.00
14687;DHT22;7431;49.440;11.084;2023-11-21T12:51:08;10.90;1.00
14687;DHT22;7431;49.440;11.084;2023-11-21T12:53:35;11.00;1.00
14687;DHT22;7431;49.440;11.084;2023-11-21T12:56:05;11.00;1.00
14687;DHT22;7431;49.440;11.084;2023-11-21T12:58:31;11.00;1.00
14687;DHT22;7431;49.440;11.084;2023-11-21T13:00:59;11.60;1.00
14687;DHT22;7431;49.440;11.084;2023-11-21T13:03:25;10.80;1.00
14687;DHT22;7431;49.440;11.084;2023-11-21T13:05:53;10.40;1.00
14687;DHT22;7431;49.440;11.084;2023-11-21T13:08:23;10.10;1.00
14687;DHT22;7431;49.440;11.084;2023-11-21T13:10:54;10.00;1.00
14687;DHT22;7431;49.440;11.084;2023-11-21T13:13:20;9.90;26.50
14687;DHT22;7431;49.440;11.084;2023-11-21T13:16:02;9.80;1.00
14687;DHT22;7431;49.440;11.084;2023-11-21T13:18:31;9.60;97.20
14687;DHT22;7431;49.440;11.084;2023-11-21T13:20:59;9.70;25.10
14687;DHT22;7431;49.440;11.084;2023-11-21T13:23:25;9.60;99.90
14687;DHT22;7431;49.440;11.084;2023-11-21T13:25:52;9.60;99.90
14687;DHT22;7431;49.440;11.084;2023-11-21T13:28:18;9.60;99.90
14687;DHT22;7431;49.440;11.084;2023-11-21T13:30:46;9.70;1.00
14687;DHT22;7431;49.440;11.084;2023-11-21T13:33:13;10.50;1.00
14687;DHT22;7431;49.440;11.084;2023-11-21T13:35:44;9.60;1.00
14687;DHT22;7431;49.440;11.084;2023-11-21T13:38:15;9.50;1.00
14687;DHT22;7431;49.440;11.084;2023-11-21T13:40:46;9.90;99.90
14687;DHT22;7431;49.440;11.084;2023-11-21T13:43:17;9.50;99.90
14687;DHT22;7431;49.440;11.084;2023-11-21T13:45:48;9.50;99.90
14687;DHT22;7431;49.440;11.084;2023-11-21T13:48:17;9.50;99.90
14687;DHT22;7431;49.440;11.084;2023-11-21T13:50:50;9.50;98.30
14687;DHT22;7431;49.440;11.084;2023-11-21T13:53:35;9.60;1.00
14687;DHT22;7431;49.440;11.084;2023-11-21T13:56:03;9.60;1.00
14687;DHT22;7431;49.440;11.084;2023-11-21T13:58:29;9.70;99.90
14687;DHT22;7431;49.440;11.084;2023-11-21T14:01:24;9.70;1.00
14687;DHT22;7431;49.440;11.084;2023-11-21T14:03:59;9.70;1.70
14687;DHT22;7431;49.440;11.084;2023-11-21T14:06:46;9.70;1.00
14687;DHT22;7431;49.440;11.084;2023-11-21T14:09:15;9.60;99.90
14687;DHT22;7431;49.440;11.084;2023-11-21T14:11:51;9.50;1.00
14687;DHT22;7431;49.440;11.084;2023-11-21T14:14:18;9.70;1.00
14687;DHT22;7431;49.440;11.084;2023-11-21T14:16:44;9.60;1.00
14687;DHT22;7431;49.440;11.084;2023-11-21T14:19:10;9.70;1.00
14687;DHT22;7431;49.440;11.084;2023-11-21T14:21:41;9.70;34.50
14687;DHT22;7431;49.440;11.084;2023-11-21T14:24:11;9.80;99.90
14687;DHT22;7431;49.440;11.084;2023-11-21T14:26:41;9.70;99.90
14687;DHT22;7431;49.440;11.084;2023-11-21T14:29:08;9.70;1.00
14687;DHT22;7431;49.440;11.084;2023-11-21T14:31:34;9.60;1.00
14687;DHT22;7431;49.440;11.084;2023-11-21T14:34:00;9.60;1.00
14687;DHT22;7431;49.440;11.084;2023-11-21T14:36:28;9.50;99.90
14687;DHT22;7431;49.440;11.084;2023-11-21T14:38:53;9.60;1.00
14687;DHT22;7431;49.440;11.084;2023-11-21T14:41:19;9.60;1.00
14687;DHT22;7431;49.440;11.084;2023-11-21T14:43:44;9.60;1.00
14687;DHT22;7431;49.440;11.084;2023-11-21T14:46:13;9.60;99.90
14687;DHT22;7431;49.440;11.084;2023-11-21T14:48:42;9.70;12.00
14687;DHT22;7431;49.440;11.084;2023-11-21T14:51:11;9.70;1.00
14687;DHT22;7431;49.440;11.084;2023-11-21T14:53:56;9.60;23.40
14687;DHT22;7431;49.440;11.084;2023-11-21T14:56:26;9.50;99.90
14687;DHT22;7431;49.440;11.084;2023-11-21T14:58:59;9.50;1.00
14687;DHT22;7431;49.440;11.084;2023-11-21T15:01:38;9.30;99.90
14687;DHT22;7431;49.440;11.084;2023-11-21T15:04:18;9.30;99.90
14687;DHT22;7431;49.440;11.084;2023-11-21T15:07:04;9.40;1.00
14687;DHT22;7431;49.440;11.084;2023-11-21T15:09:29;9.20;1.00
14687;DHT22;7431;49.440;11.084;2023-11-21T15:11:55;9.10;1.00
14687;DHT22;7431;49.440;11.084;2023-11-21T15:14:28;9.10;1.00
14687;DHT22;7431;49.440;11.084;2023-11-21T15:16:57;9.10;1.00
14687;DHT22;7431;49.440;11.084;2023-11-21T15:19:25;9.10;99.90
14687;DHT22;7431;49.440;11.084;2023-11-21T15:21:51;9.00;99.90
14687;DHT22;7431;49.440;11.084;2023-11-21T15:24:17;9.30;1.00
14687;DHT22;7431;49.440;11.084;2023-11-21T15:26:42;9.00;1.00
14687;DHT22;7431;49.440;11.084;2023-11-21T15:29:08;9.00;1.00
14687;DHT22;7431;49.440;11.084;2023-11-21T15:31:34;8.90;99.90
14687;DHT22;7431;49.440;11.084;2023-11-21T15:34:01;8.90;99.90
14687;DHT22;7431;49.440;11.084;2023-11-21T15:36:27;8.90;35.00
14687;DHT22;7431;49.440;11.084;2023-11-21T15:38:53;8.80;1.00
14687;DHT22;7431;49.440;11.084;2023-11-21T15:41:19;8.80;99.90
14687;DHT22;7431;49.440;11.084;2023-11-21T15:43:44;8.70;99.90
14687;DHT22;7431;49.440;11.084;2023-11-21T15:46:10;8.70;1.00
14687;DHT22;7431;49.440;11.084;2023-11-21T15:48:36;8.70;1.00
14687;DHT22;7431;49.440;11.084;2023-11-21T15:51:09;8.70;99.90
14687;DHT22;7431;49.440;11.084;2023-11-21T15:53:37;8.80;1.00
14687;DHT22;7431;49.440;11.084;2023-11-21T15:56:07;8.70;1.00